sensor_id;sensor_type;location;lat;lon;timestamp;P1;durP1;ratioP1;P2;durP2;ratioP2
37199;SDS011;23096;50.892;16.746;2023-07-29T00:02:17;2.90;;;1.50;;
37199;SDS011;23096;50.892;16.746;2023-07-29T00:04:43;1.50;;;1.40;;
37199;SDS011;23096;50.892;16.746;2023-07-29T00:07:08;2.20;;;1.40;;
37199;SDS011;23096;50.892;16.746;2023-07-29T00:09:34;1.00;;;1.00;;
37199;SDS011;23096;50.892;16.746;2023-07-29T00:11:59;3.70;;;1.50;;
37199;SDS011;23096;50.892;16.746;2023-07-29T00:14:25;2.60;;;1.00;;
37199;SDS011;23096;50.892;16.746;2023-07-29T00:16:50;4.70;;;1.40;;
37199;SDS011;23096;50.892;16.746;2023-07-29T00:19:16;1.50;;;1.20;;
37199;SDS011;23096;50.892;16.746;2023-07-29T00:21:41;1.20;;;1.10;;
37199;SDS011;23096;50.892;16.746;2023-07-29T00:24:07;1.20;;;0.80;;
37199;SDS011;23096;50.892;16.746;2023-07-29T00:26:33;1.40;;;1.10;;
37199;SDS011;23096;50.892;16.746;2023-07-29T00:28:59;3.10;;;1.30;;
37199;SDS011;23096;50.892;16.746;2023-07-29T00:31:25;1.80;;;1.30;;
37199;SDS011;23096;50.892;16.746;2023-07-29T00:33:50;0.90;;;0.80;;
37199;SDS011;23096;50.892;16.746;2023-07-29T00:36:18;1.50;;;1.30;;
37199;SDS011;23096;50.892;16.746;2023-07-29T00:38:44;1.20;;;1.10;;
37199;SDS011;23096;50.892;16.746;2023-07-29T00:41:09;1.10;;;1.10;;
37199;SDS011;23096;50.892;16.746;2023-07-29T00:43:40;2.90;;;1.00;;
37199;SDS011;23096;50.892;16.746;2023-07-29T00:46:05;2.40;;;1.10;;
37199;SDS011;23096;50.892;16.746;2023-07-29T00:48:35;2.50;;;1.00;;
37199;SDS011;23096;50.892;16.746;2023-07-29T00:51:01;1.40;;;1.20;;
37199;SDS011;23096;50.892;16.746;2023-07-29T00:53:26;1.10;;;1.00;;
37199;SDS011;23096;50.892;16.746;2023-07-29T00:55:52;0.70;;;0.70;;
37199;SDS011;23096;50.892;16.746;2023-07-29T00:58:18;1.00;;;0.90;;
37199;SDS011;23096;50.892;16.746;2023-07-29T01:00:44;1.90;;;0.80;;
37199;SDS011;23096;50.892;16.746;2023-07-29T01:03:10;3.10;;;1.10;;
37199;SDS011;23096;50.892;16.746;2023-07-29T01:05:40;1.40;;;0.80;;
37199;SDS011;23096;50.892;16.746;2023-07-29T01:08:18;0.80;;;0.80;;
37199;SDS011;23096;50.892;16.746;2023-07-29T01:11:09;0.90;;;0.80;;
37199;SDS011;23096;50.892;16.746;2023-07-29T01:13:53;1.20;;;0.70;;
37199;SDS011;23096;50.892;16.746;2023-07-29T01:16:33;1.10;;;1.00;;
37199;SDS011;23096;50.892;16.746;2023-07-29T01:19:09;0.60;;;0.60;;
37199;SDS011;23096;50.892;16.746;2023-07-29T01:21:46;3.00;;;0.90;;
37199;SDS011;23096;50.892;16.746;2023-07-29T01:24:11;1.90;;;0.90;;
37199;SDS011;23096;50.892;16.746;2023-07-29T01:26:37;1.00;;;0.90;;
37199;SDS011;23096;50.892;16.746;2023-07-29T01:29:03;1.00;;;0.90;;
37199;SDS011;23096;50.892;16.746;2023-07-29T01:31:38;1.90;;;0.90;;
37199;SDS011;23096;50.892;16.746;2023-07-29T01:34:13;1.00;;;0.90;;
37199;SDS011;23096;50.892;16.746;2023-07-29T01:36:48;2.30;;;1.30;;
37199;SDS011;23096;50.892;16.746;2023-07-29T01:39:15;2.70;;;1.00;;
37199;SDS011;23096;50.892;16.746;2023-07-29T01:41:42;1.60;;;1.20;;
37199;SDS011;23096;50.892;16.746;2023-07-29T01:44:09;1.90;;;1.20;;
37199;SDS011;23096;50.892;16.746;2023-07-29T01:46:36;2.00;;;0.90;;
37199;SDS011;23096;50.892;16.746;2023-07-29T01:49:02;1.40;;;0.80;;
37199;SDS011;23096;50.892;16.746;2023-07-29T01:51:29;2.90;;;1.20;;
37199;SDS011;23096;50.892;16.746;2023-07-29T01:53:55;1.20;;;1.10;;
37199;SDS011;23096;50.892;16.746;2023-07-29T01:56:21;1.30;;;0.90;;
37199;SDS011;23096;50.892;16.746;2023-07-29T02:01:18;1.10;;;1.00;;
37199;SDS011;23096;50.892;16.746;2023-07-29T02:03:44;1.30;;;1.20;;
37199;SDS011;23096;50.892;16.746;2023-07-29T02:06:09;1.00;;;0.80;;
37199;SDS011;23096;50.892;16.746;2023-07-29T02:08:35;1.40;;;0.80;;
37199;SDS011;23096;50.892;16.746;2023-07-29T02:11:00;0.90;;;0.80;;
37199;SDS011;23096;50.892;16.746;2023-07-29T02:13:27;1.60;;;0.80;;
37199;SDS011;23096;50.892;16.746;2023-07-29T02:15:52;1.20;;;1.00;;
37199;SDS011;23096;50.892;16.746;2023-07-29T02:18:18;1.00;;;0.80;;
37199;SDS011;23096;50.892;16.746;2023-07-29T02:20:43;0.90;;;0.90;;
37199;SDS011;23096;50.892;16.746;2023-07-29T02:23:14;0.90;;;0.90;;
37199;SDS011;23096;50.892;16.746;2023-07-29T02:25:42;2.80;;;1.00;;
37199;SDS011;23096;50.892;16.746;2023-07-29T02:28:08;1.90;;;1.30;;
37199;SDS011;23096;50.892;16.746;2023-07-29T02:30:33;1.60;;;1.10;;
37199;SDS011;23096;50.892;16.746;2023-07-29T02:32:59;2.30;;;1.70;;
37199;SDS011;23096;50.892;16.746;2023-07-29T02:35:26;1.60;;;1.30;;
37199;SDS011;23096;50.892;16.746;2023-07-29T02:37:53;1.90;;;1.70;;
37199;SDS011;23096;50.892;16.746;2023-07-29T02:40:20;3.80;;;1.70;;
37199;SDS011;23096;50.892;16.746;2023-07-29T02:42:46;1.50;;;1.40;;
37199;SDS011;23096;50.892;16.746;2023-07-29T02:45:12;5.20;;;1.80;;
37199;SDS011;23096;50.892;16.746;2023-07-29T02:47:38;1.50;;;1.40;;
37199;SDS011;23096;50.892;16.746;2023-07-29T02:50:03;4.60;;;1.60;;
37199;SDS011;23096;50.892;16.746;2023-07-29T02:52:29;2.00;;;1.40;;
37199;SDS011;23096;50.892;16.746;2023-07-29T02:54:55;3.10;;;1.40;;
37199;SDS011;23096;50.892;16.746;2023-07-29T02:57:21;3.60;;;1.40;;
37199;SDS011;23096;50.892;16.746;2023-07-29T02:59:46;1.40;;;1.30;;
37199;SDS011;23096;50.892;16.746;2023-07-29T03:02:12;2.10;;;1.70;;
37199;SDS011;23096;50.892;16.746;2023-07-29T03:04:38;3.90;;;1.90;;
37199;SDS011;23096;50.892;16.746;2023-07-29T03:07:03;7.60;;;2.80;;
37199;SDS011;23096;50.892;16.746;2023-07-29T03:09:29;2.40;;;1.90;;
37199;SDS011;23096;50.892;16.746;2023-07-29T03:11:54;2.20;;;1.70;;
37199;SDS011;23096;50.892;16.746;2023-07-29T03:14:20;1.30;;;1.20;;
37199;SDS011;23096;50.892;16.746;2023-07-29T03:16:46;3.30;;;1.60;;
37199;SDS011;23096;50.892;16.746;2023-07-29T03:19:12;5.80;;;1.70;;
37199;SDS011;23096;50.892;16.746;2023-07-29T03:21:38;4.00;;;1.90;;
37199;SDS011;23096;50.892;16.746;2023-07-29T03:24:04;4.90;;;1.70;;
37199;SDS011;23096;50.892;16.746;2023-07-29T03:26:29;2.30;;;1.50;;
37199;SDS011;23096;50.892;16.746;2023-07-29T03:28:55;3.30;;;1.80;;
37199;SDS011;23096;50.892;16.746;2023-07-29T03:31:21;4.30;;;1.60;;
37199;SDS011;23096;50.892;16.746;2023-07-29T03:33:46;2.30;;;1.40;;
37199;SDS011;23096;50.892;16.746;2023-07-29T03:36:13;2.30;;;1.40;;
37199;SDS011;23096;50.892;16.746;2023-07-29T03:38:39;4.50;;;1.60;;
37199;SDS011;23096;50.892;16.746;2023-07-29T03:41:08;3.30;;;2.40;;
37199;SDS011;23096;50.892;16.746;2023-07-29T03:43:34;2.20;;;1.70;;
37199;SDS011;23096;50.892;16.746;2023-07-29T03:46:00;2.80;;;2.30;;
37199;SDS011;23096;50.892;16.746;2023-07-29T03:48:26;4.00;;;2.10;;
37199;SDS011;23096;50.892;16.746;2023-07-29T03:50:52;5.70;;;1.80;;
37199;SDS011;23096;50.892;16.746;2023-07-29T03:53:17;2.30;;;1.60;;
37199;SDS011;23096;50.892;16.746;2023-07-29T03:55:43;2.00;;;1.50;;
37199;SDS011;23096;50.892;16.746;2023-07-29T03:58:09;4.50;;;1.70;;
37199;SDS011;23096;50.892;16.746;2023-07-29T04:00:34;2.80;;;1.80;;
37199;SDS011;23096;50.892;16.746;2023-07-29T04:03:00;3.20;;;2.00;;
37199;SDS011;23096;50.892;16.746;2023-07-29T04:05:26;3.20;;;1.60;;
37199;SDS011;23096;50.892;16.746;2023-07-29T04:07:51;3.00;;;1.60;;
37199;SDS011;23096;50.892;16.746;2023-07-29T04:10:18;2.00;;;1.50;;
37199;SDS011;23096;50.892;16.746;2023-07-29T04:12:44;7.10;;;1.60;;
37199;SDS011;23096;50.892;16.746;2023-07-29T04:15:10;4.90;;;1.50;;
37199;SDS011;23096;50.892;16.746;2023-07-29T04:17:36;1.50;;;1.30;;
37199;SDS011;23096;50.892;16.746;2023-07-29T04:20:02;3.30;;;1.50;;
37199;SDS011;23096;50.892;16.746;2023-07-29T04:22:31;1.90;;;1.40;;
37199;SDS011;23096;50.892;16.746;2023-07-29T04:24:57;2.10;;;1.50;;
37199;SDS011;23096;50.892;16.746;2023-07-29T04:27:22;1.90;;;1.70;;
37199;SDS011;23096;50.892;16.746;2023-07-29T04:29:48;1.60;;;1.50;;
37199;SDS011;23096;50.892;16.746;2023-07-29T04:32:14;6.20;;;1.70;;
37199;SDS011;23096;50.892;16.746;2023-07-29T04:34:41;2.40;;;1.50;;
37199;SDS011;23096;50.892;16.746;2023-07-29T04:37:06;4.10;;;1.50;;
37199;SDS011;23096;50.892;16.746;2023-07-29T04:39:32;1.40;;;1.30;;
37199;SDS011;23096;50.892;16.746;2023-07-29T04:41:58;2.10;;;1.40;;
37199;SDS011;23096;50.892;16.746;2023-07-29T04:44:24;3.50;;;1.40;;
37199;SDS011;23096;50.892;16.746;2023-07-29T04:46:49;1.70;;;1.60;;
37199;SDS011;23096;50.892;16.746;2023-07-29T04:49:15;1.60;;;1.00;;
37199;SDS011;23096;50.892;16.746;2023-07-29T04:51:40;2.50;;;1.40;;
37199;SDS011;23096;50.892;16.746;2023-07-29T04:54:06;1.10;;;1.00;;
37199;SDS011;23096;50.892;16.746;2023-07-29T04:56:32;2.30;;;1.40;;
37199;SDS011;23096;50.892;16.746;2023-07-29T04:58:57;4.40;;;1.30;;
37199;SDS011;23096;50.892;16.746;2023-07-29T05:01:23;1.70;;;1.20;;
37199;SDS011;23096;50.892;16.746;2023-07-29T05:03:48;1.50;;;1.00;;
37199;SDS011;23096;50.892;16.746;2023-07-29T05:06:14;1.00;;;1.00;;
37199;SDS011;23096;50.892;16.746;2023-07-29T05:08:39;1.50;;;1.30;;
37199;SDS011;23096;50.892;16.746;2023-07-29T05:11:05;4.80;;;1.70;;
37199;SDS011;23096;50.892;16.746;2023-07-29T05:13:31;2.20;;;2.00;;
37199;SDS011;23096;50.892;16.746;2023-07-29T05:15:56;2.90;;;2.50;;
37199;SDS011;23096;50.892;16.746;2023-07-29T05:18:22;3.70;;;2.30;;
37199;SDS011;23096;50.892;16.746;2023-07-29T05:20:48;2.10;;;1.70;;
37199;SDS011;23096;50.892;16.746;2023-07-29T05:23:14;1.60;;;1.50;;
37199;SDS011;23096;50.892;16.746;2023-07-29T05:25:39;2.30;;;2.10;;
37199;SDS011;23096;50.892;16.746;2023-07-29T05:28:05;4.00;;;2.20;;
37199;SDS011;23096;50.892;16.746;2023-07-29T05:30:32;7.80;;;3.50;;
37199;SDS011;23096;50.892;16.746;2023-07-29T05:33:02;7.50;;;3.00;;
37199;SDS011;23096;50.892;16.746;2023-07-29T05:35:33;4.60;;;3.00;;
37199;SDS011;23096;50.892;16.746;2023-07-29T05:37:59;2.80;;;2.10;;
37199;SDS011;23096;50.892;16.746;2023-07-29T05:40:25;6.40;;;1.90;;
37199;SDS011;23096;50.892;16.746;2023-07-29T05:42:50;4.80;;;2.10;;
37199;SDS011;23096;50.892;16.746;2023-07-29T05:45:16;1.60;;;1.50;;
37199;SDS011;23096;50.892;16.746;2023-07-29T05:47:42;2.70;;;1.50;;
37199;SDS011;23096;50.892;16.746;2023-07-29T05:50:09;1.90;;;1.70;;
37199;SDS011;23096;50.892;16.746;2023-07-29T05:52:34;2.50;;;1.70;;
37199;SDS011;23096;50.892;16.746;2023-07-29T05:55:00;4.70;;;2.00;;
37199;SDS011;23096;50.892;16.746;2023-07-29T05:57:26;6.70;;;3.50;;
37199;SDS011;23096;50.892;16.746;2023-07-29T05:59:52;8.30;;;5.90;;
37199;SDS011;23096;50.892;16.746;2023-07-29T06:02:18;15.00;;;9.50;;
37199;SDS011;23096;50.892;16.746;2023-07-29T06:04:45;9.00;;;7.30;;
37199;SDS011;23096;50.892;16.746;2023-07-29T06:07:10;8.70;;;6.30;;
37199;SDS011;23096;50.892;16.746;2023-07-29T06:09:36;7.90;;;3.80;;
37199;SDS011;23096;50.892;16.746;2023-07-29T06:12:02;8.00;;;2.70;;
37199;SDS011;23096;50.892;16.746;2023-07-29T06:14:28;2.10;;;1.90;;
37199;SDS011;23096;50.892;16.746;2023-07-29T06:16:53;3.60;;;2.00;;
37199;SDS011;23096;50.892;16.746;2023-07-29T06:19:19;2.40;;;2.00;;
37199;SDS011;23096;50.892;16.746;2023-07-29T06:21:45;3.60;;;1.90;;
37199;SDS011;23096;50.892;16.746;2023-07-29T06:24:11;2.80;;;2.00;;
37199;SDS011;23096;50.892;16.746;2023-07-29T06:26:37;3.80;;;1.60;;
37199;SDS011;23096;50.892;16.746;2023-07-29T06:29:02;2.50;;;1.80;;
37199;SDS011;23096;50.892;16.746;2023-07-29T06:31:28;3.30;;;1.40;;
37199;SDS011;23096;50.892;16.746;2023-07-29T06:33:54;2.50;;;1.40;;
37199;SDS011;23096;50.892;16.746;2023-07-29T06:36:20;1.10;;;0.90;;
37199;SDS011;23096;50.892;16.746;2023-07-29T06:38:46;1.20;;;1.10;;
37199;SDS011;23096;50.892;16.746;2023-07-29T06:41:11;1.10;;;1.00;;
37199;SDS011;23096;50.892;16.746;2023-07-29T06:43:37;0.90;;;0.90;;
37199;SDS011;23096;50.892;16.746;2023-07-29T06:46:03;1.30;;;1.20;;
37199;SDS011;23096;50.892;16.746;2023-07-29T06:48:28;2.10;;;1.10;;
37199;SDS011;23096;50.892;16.746;2023-07-29T06:50:54;1.10;;;0.90;;
37199;SDS011;23096;50.892;16.746;2023-07-29T06:53:20;1.00;;;1.00;;
37199;SDS011;23096;50.892;16.746;2023-07-29T06:55:46;0.80;;;0.80;;
37199;SDS011;23096;50.892;16.746;2023-07-29T06:58:12;0.60;;;0.60;;
37199;SDS011;23096;50.892;16.746;2023-07-29T07:00:38;2.20;;;1.10;;
37199;SDS011;23096;50.892;16.746;2023-07-29T07:03:03;2.60;;;1.10;;
37199;SDS011;23096;50.892;16.746;2023-07-29T07:05:29;2.20;;;0.90;;
37199;SDS011;23096;50.892;16.746;2023-07-29T07:07:54;1.20;;;1.10;;
37199;SDS011;23096;50.892;16.746;2023-07-29T07:10:20;1.00;;;1.00;;
37199;SDS011;23096;50.892;16.746;2023-07-29T07:12:45;1.90;;;1.30;;
37199;SDS011;23096;50.892;16.746;2023-07-29T07:15:11;2.50;;;1.20;;
37199;SDS011;23096;50.892;16.746;2023-07-29T07:17:36;0.90;;;0.80;;
37199;SDS011;23096;50.892;16.746;2023-07-29T07:20:02;1.30;;;1.00;;
37199;SDS011;23096;50.892;16.746;2023-07-29T07:22:28;1.10;;;1.00;;
37199;SDS011;23096;50.892;16.746;2023-07-29T07:24:54;1.40;;;1.00;;
37199;SDS011;23096;50.892;16.746;2023-07-29T07:27:20;1.00;;;0.90;;
37199;SDS011;23096;50.892;16.746;2023-07-29T07:29:45;0.60;;;0.60;;
37199;SDS011;23096;50.892;16.746;2023-07-29T07:32:11;1.20;;;1.10;;
37199;SDS011;23096;50.892;16.746;2023-07-29T07:34:36;2.30;;;0.90;;
37199;SDS011;23096;50.892;16.746;2023-07-29T07:37:02;1.60;;;1.00;;
37199;SDS011;23096;50.892;16.746;2023-07-29T07:39:29;1.40;;;0.80;;
37199;SDS011;23096;50.892;16.746;2023-07-29T07:41:56;2.30;;;1.00;;
37199;SDS011;23096;50.892;16.746;2023-07-29T07:44:22;1.10;;;1.00;;
37199;SDS011;23096;50.892;16.746;2023-07-29T07:46:47;1.60;;;1.00;;
37199;SDS011;23096;50.892;16.746;2023-07-29T07:49:13;0.80;;;0.80;;
37199;SDS011;23096;50.892;16.746;2023-07-29T07:51:39;2.40;;;1.30;;
37199;SDS011;23096;50.892;16.746;2023-07-29T07:54:05;2.70;;;1.00;;
37199;SDS011;23096;50.892;16.746;2023-07-29T07:56:30;0.90;;;0.80;;
37199;SDS011;23096;50.892;16.746;2023-07-29T07:58:56;2.90;;;1.10;;
37199;SDS011;23096;50.892;16.746;2023-07-29T08:01:21;1.10;;;0.90;;
37199;SDS011;23096;50.892;16.746;2023-07-29T08:03:47;0.60;;;0.60;;
37199;SDS011;23096;50.892;16.746;2023-07-29T08:06:13;2.50;;;1.20;;
37199;SDS011;23096;50.892;16.746;2023-07-29T08:08:38;1.90;;;1.50;;
37199;SDS011;23096;50.892;16.746;2023-07-29T08:11:04;3.80;;;1.10;;
37199;SDS011;23096;50.892;16.746;2023-07-29T08:13:29;3.20;;;1.60;;
37199;SDS011;23096;50.892;16.746;2023-07-29T08:15:55;1.60;;;1.30;;
37199;SDS011;23096;50.892;16.746;2023-07-29T08:18:21;1.40;;;1.30;;
37199;SDS011;23096;50.892;16.746;2023-07-29T08:23:19;2.00;;;1.60;;
37199;SDS011;23096;50.892;16.746;2023-07-29T08:25:44;2.90;;;1.20;;
37199;SDS011;23096;50.892;16.746;2023-07-29T08:28:10;2.50;;;1.60;;
37199;SDS011;23096;50.892;16.746;2023-07-29T08:30:36;4.00;;;2.10;;
37199;SDS011;23096;50.892;16.746;2023-07-29T08:33:02;1.70;;;1.40;;
37199;SDS011;23096;50.892;16.746;2023-07-29T08:35:27;2.80;;;1.20;;
37199;SDS011;23096;50.892;16.746;2023-07-29T08:37:53;1.10;;;1.10;;
37199;SDS011;23096;50.892;16.746;2023-07-29T08:40:19;1.60;;;1.50;;
37199;SDS011;23096;50.892;16.746;2023-07-29T08:42:52;1.50;;;1.40;;
37199;SDS011;23096;50.892;16.746;2023-07-29T08:45:20;2.40;;;1.30;;
37199;SDS011;23096;50.892;16.746;2023-07-29T08:47:46;1.70;;;1.60;;
37199;SDS011;23096;50.892;16.746;2023-07-29T08:50:13;1.20;;;1.10;;
37199;SDS011;23096;50.892;16.746;2023-07-29T08:52:40;2.90;;;1.90;;
37199;SDS011;23096;50.892;16.746;2023-07-29T08:55:07;1.60;;;1.40;;
37199;SDS011;23096;50.892;16.746;2023-07-29T08:57:33;2.90;;;1.50;;
37199;SDS011;23096;50.892;16.746;2023-07-29T09:00:00;1.60;;;1.40;;
37199;SDS011;23096;50.892;16.746;2023-07-29T09:02:27;1.60;;;1.50;;
37199;SDS011;23096;50.892;16.746;2023-07-29T09:04:53;2.30;;;1.60;;
37199;SDS011;23096;50.892;16.746;2023-07-29T09:07:18;2.70;;;1.80;;
37199;SDS011;23096;50.892;16.746;2023-07-29T09:09:45;2.60;;;2.40;;
37199;SDS011;23096;50.892;16.746;2023-07-29T09:12:10;1.80;;;1.70;;
37199;SDS011;23096;50.892;16.746;2023-07-29T09:14:37;2.20;;;2.10;;
37199;SDS011;23096;50.892;16.746;2023-07-29T09:17:02;3.90;;;2.30;;
37199;SDS011;23096;50.892;16.746;2023-07-29T09:19:32;3.80;;;2.30;;
37199;SDS011;23096;50.892;16.746;2023-07-29T09:21:58;2.30;;;2.20;;
37199;SDS011;23096;50.892;16.746;2023-07-29T09:24:24;2.50;;;2.30;;
37199;SDS011;23096;50.892;16.746;2023-07-29T09:26:54;3.00;;;2.70;;
37199;SDS011;23096;50.892;16.746;2023-07-29T09:29:23;2.70;;;2.40;;
37199;SDS011;23096;50.892;16.746;2023-07-29T09:31:49;2.30;;;2.20;;
37199;SDS011;23096;50.892;16.746;2023-07-29T09:34:15;2.60;;;2.40;;
37199;SDS011;23096;50.892;16.746;2023-07-29T09:36:42;4.20;;;2.90;;
37199;SDS011;23096;50.892;16.746;2023-07-29T09:39:11;2.70;;;2.30;;
37199;SDS011;23096;50.892;16.746;2023-07-29T09:41:40;2.80;;;2.60;;
37199;SDS011;23096;50.892;16.746;2023-07-29T09:44:06;2.70;;;2.50;;
37199;SDS011;23096;50.892;16.746;2023-07-29T09:46:35;2.50;;;2.30;;
37199;SDS011;23096;50.892;16.746;2023-07-29T09:49:06;2.40;;;2.20;;
37199;SDS011;23096;50.892;16.746;2023-07-29T09:51:39;2.70;;;2.50;;
37199;SDS011;23096;50.892;16.746;2023-07-29T09:54:05;1.90;;;1.80;;
37199;SDS011;23096;50.892;16.746;2023-07-29T09:56:30;2.10;;;2.00;;
37199;SDS011;23096;50.892;16.746;2023-07-29T09:58:56;1.90;;;1.80;;
37199;SDS011;23096;50.892;16.746;2023-07-29T10:01:25;1.60;;;1.50;;
37199;SDS011;23096;50.892;16.746;2023-07-29T10:03:50;3.10;;;2.00;;
37199;SDS011;23096;50.892;16.746;2023-07-29T10:06:17;1.90;;;1.80;;
37199;SDS011;23096;50.892;16.746;2023-07-29T10:08:44;1.80;;;1.70;;
37199;SDS011;23096;50.892;16.746;2023-07-29T10:11:11;3.10;;;1.30;;
37199;SDS011;23096;50.892;16.746;2023-07-29T10:13:37;2.00;;;1.30;;
37199;SDS011;23096;50.892;16.746;2023-07-29T10:16:04;1.60;;;1.20;;
37199;SDS011;23096;50.892;16.746;2023-07-29T10:18:30;2.00;;;1.20;;
37199;SDS011;23096;50.892;16.746;2023-07-29T10:20:57;1.40;;;1.30;;
37199;SDS011;23096;50.892;16.746;2023-07-29T10:23:25;1.80;;;1.10;;
37199;SDS011;23096;50.892;16.746;2023-07-29T10:26:05;1.40;;;1.30;;
37199;SDS011;23096;50.892;16.746;2023-07-29T10:28:34;1.50;;;1.40;;
37199;SDS011;23096;50.892;16.746;2023-07-29T10:31:05;2.10;;;1.60;;
37199;SDS011;23096;50.892;16.746;2023-07-29T10:33:32;2.20;;;1.20;;
37199;SDS011;23096;50.892;16.746;2023-07-29T10:35:59;2.00;;;1.50;;
37199;SDS011;23096;50.892;16.746;2023-07-29T10:38:25;1.80;;;1.10;;
37199;SDS011;23096;50.892;16.746;2023-07-29T10:40:55;1.00;;;1.00;;
37199;SDS011;23096;50.892;16.746;2023-07-29T10:43:24;1.20;;;1.10;;
37199;SDS011;23096;50.892;16.746;2023-07-29T10:45:51;0.90;;;0.90;;
37199;SDS011;23096;50.892;16.746;2023-07-29T10:53:44;2.00;;;1.10;;
37199;SDS011;23096;50.892;16.746;2023-07-29T10:56:10;5.50;;;1.60;;
37199;SDS011;23096;50.892;16.746;2023-07-29T10:58:38;1.00;;;0.80;;
37199;SDS011;23096;50.892;16.746;2023-07-29T11:01:12;1.30;;;1.00;;
37199;SDS011;23096;50.892;16.746;2023-07-29T11:03:38;0.60;;;0.60;;
37199;SDS011;23096;50.892;16.746;2023-07-29T11:06:06;2.30;;;0.90;;
37199;SDS011;23096;50.892;16.746;2023-07-29T11:08:32;3.00;;;0.80;;
37199;SDS011;23096;50.892;16.746;2023-07-29T11:13:32;1.10;;;0.90;;
37199;SDS011;23096;50.892;16.746;2023-07-29T11:16:00;2.60;;;0.70;;
37199;SDS011;23096;50.892;16.746;2023-07-29T11:18:30;1.90;;;0.90;;
37199;SDS011;23096;50.892;16.746;2023-07-29T11:20:59;2.50;;;0.70;;
37199;SDS011;23096;50.892;16.746;2023-07-29T11:25:55;0.70;;;0.70;;
37199;SDS011;23096;50.892;16.746;2023-07-29T11:28:21;1.40;;;0.60;;
37199;SDS011;23096;50.892;16.746;2023-07-29T11:30:47;0.90;;;0.90;;
37199;SDS011;23096;50.892;16.746;2023-07-29T11:33:22;1.90;;;0.80;;
37199;SDS011;23096;50.892;16.746;2023-07-29T11:35:50;0.80;;;0.80;;
37199;SDS011;23096;50.892;16.746;2023-07-29T11:38:16;1.90;;;0.70;;
37199;SDS011;23096;50.892;16.746;2023-07-29T11:40:53;0.80;;;0.80;;
37199;SDS011;23096;50.892;16.746;2023-07-29T11:43:23;0.40;;;0.40;;
37199;SDS011;23096;50.892;16.746;2023-07-29T11:45:49;0.60;;;0.60;;
37199;SDS011;23096;50.892;16.746;2023-07-29T11:48:14;0.60;;;0.60;;
37199;SDS011;23096;50.892;16.746;2023-07-29T11:50:40;0.90;;;0.80;;
37199;SDS011;23096;50.892;16.746;2023-07-29T11:53:06;1.00;;;0.80;;
37199;SDS011;23096;50.892;16.746;2023-07-29T11:55:31;1.40;;;1.10;;
37199;SDS011;23096;50.892;16.746;2023-07-29T11:57:58;1.10;;;0.90;;
37199;SDS011;23096;50.892;16.746;2023-07-29T12:00:24;0.80;;;0.70;;
37199;SDS011;23096;50.892;16.746;2023-07-29T12:02:51;2.80;;;1.00;;
37199;SDS011;23096;50.892;16.746;2023-07-29T12:05:16;0.80;;;0.80;;
37199;SDS011;23096;50.892;16.746;2023-07-29T12:07:44;1.50;;;0.90;;
37199;SDS011;23096;50.892;16.746;2023-07-29T12:10:10;1.50;;;0.70;;
37199;SDS011;23096;50.892;16.746;2023-07-29T12:12:46;0.70;;;0.70;;
37199;SDS011;23096;50.892;16.746;2023-07-29T12:15:28;1.00;;;0.70;;
37199;SDS011;23096;50.892;16.746;2023-07-29T12:17:58;0.70;;;0.70;;
37199;SDS011;23096;50.892;16.746;2023-07-29T12:20:24;0.70;;;0.70;;
37199;SDS011;23096;50.892;16.746;2023-07-29T12:22:51;0.70;;;0.70;;
37199;SDS011;23096;50.892;16.746;2023-07-29T12:25:26;0.90;;;0.90;;
37199;SDS011;23096;50.892;16.746;2023-07-29T12:27:55;1.80;;;0.60;;
37199;SDS011;23096;50.892;16.746;2023-07-29T12:30:26;0.70;;;0.70;;
37199;SDS011;23096;50.892;16.746;2023-07-29T12:32:53;0.80;;;0.80;;
37199;SDS011;23096;50.892;16.746;2023-07-29T12:35:18;1.30;;;1.00;;
37199;SDS011;23096;50.892;16.746;2023-07-29T12:37:44;1.00;;;0.70;;
37199;SDS011;23096;50.892;16.746;2023-07-29T12:40:30;0.50;;;0.50;;
37199;SDS011;23096;50.892;16.746;2023-07-29T12:42:55;1.40;;;0.90;;
37199;SDS011;23096;50.892;16.746;2023-07-29T12:45:22;0.80;;;0.50;;
37199;SDS011;23096;50.892;16.746;2023-07-29T12:50:19;0.80;;;0.70;;
37199;SDS011;23096;50.892;16.746;2023-07-29T12:52:44;1.20;;;0.70;;
37199;SDS011;23096;50.892;16.746;2023-07-29T12:55:10;1.50;;;1.00;;
37199;SDS011;23096;50.892;16.746;2023-07-29T12:57:39;0.80;;;0.60;;
37199;SDS011;23096;50.892;16.746;2023-07-29T13:00:06;1.40;;;0.60;;
37199;SDS011;23096;50.892;16.746;2023-07-29T13:02:34;0.70;;;0.60;;
37199;SDS011;23096;50.892;16.746;2023-07-29T13:04:59;0.60;;;0.50;;
37199;SDS011;23096;50.892;16.746;2023-07-29T13:07:25;2.50;;;0.60;;
37199;SDS011;23096;50.892;16.746;2023-07-29T13:09:50;0.70;;;0.60;;
37199;SDS011;23096;50.892;16.746;2023-07-29T13:12:16;0.80;;;0.80;;
37199;SDS011;23096;50.892;16.746;2023-07-29T13:14:41;0.40;;;0.40;;
37199;SDS011;23096;50.892;16.746;2023-07-29T13:17:07;2.50;;;0.70;;
37199;SDS011;23096;50.892;16.746;2023-07-29T13:19:32;0.60;;;0.60;;
37199;SDS011;23096;50.892;16.746;2023-07-29T13:21:58;1.30;;;0.80;;
37199;SDS011;23096;50.892;16.746;2023-07-29T13:24:23;2.00;;;1.30;;
37199;SDS011;23096;50.892;16.746;2023-07-29T13:26:49;1.60;;;0.60;;
37199;SDS011;23096;50.892;16.746;2023-07-29T13:29:14;0.70;;;0.70;;
37199;SDS011;23096;50.892;16.746;2023-07-29T13:31:40;2.70;;;1.00;;
37199;SDS011;23096;50.892;16.746;2023-07-29T13:34:06;3.00;;;0.80;;
37199;SDS011;23096;50.892;16.746;2023-07-29T13:36:31;0.60;;;0.60;;
37199;SDS011;23096;50.892;16.746;2023-07-29T13:38:57;0.80;;;0.80;;
37199;SDS011;23096;50.892;16.746;2023-07-29T13:41:22;0.40;;;0.40;;
37199;SDS011;23096;50.892;16.746;2023-07-29T13:43:48;0.60;;;0.60;;
37199;SDS011;23096;50.892;16.746;2023-07-29T13:46:13;0.60;;;0.60;;
37199;SDS011;23096;50.892;16.746;2023-07-29T13:48:39;1.40;;;0.70;;
37199;SDS011;23096;50.892;16.746;2023-07-29T13:51:04;2.70;;;0.40;;
37199;SDS011;23096;50.892;16.746;2023-07-29T13:53:30;0.80;;;0.70;;
37199;SDS011;23096;50.892;16.746;2023-07-29T13:55:56;1.30;;;0.60;;
37199;SDS011;23096;50.892;16.746;2023-07-29T13:58:22;0.70;;;0.70;;
37199;SDS011;23096;50.892;16.746;2023-07-29T14:00:47;1.00;;;0.50;;
37199;SDS011;23096;50.892;16.746;2023-07-29T14:03:13;1.30;;;0.60;;
37199;SDS011;23096;50.892;16.746;2023-07-29T14:05:38;2.10;;;0.80;;
37199;SDS011;23096;50.892;16.746;2023-07-29T14:08:04;11.50;;;1.10;;
37199;SDS011;23096;50.892;16.746;2023-07-29T14:10:29;0.80;;;0.60;;
37199;SDS011;23096;50.892;16.746;2023-07-29T14:12:55;2.50;;;0.80;;
37199;SDS011;23096;50.892;16.746;2023-07-29T14:15:21;1.30;;;0.60;;
37199;SDS011;23096;50.892;16.746;2023-07-29T14:17:47;0.70;;;0.70;;
37199;SDS011;23096;50.892;16.746;2023-07-29T14:20:12;1.40;;;0.90;;
37199;SDS011;23096;50.892;16.746;2023-07-29T14:22:38;0.80;;;0.70;;
37199;SDS011;23096;50.892;16.746;2023-07-29T14:25:04;3.00;;;1.20;;
37199;SDS011;23096;50.892;16.746;2023-07-29T14:27:30;0.60;;;0.50;;
37199;SDS011;23096;50.892;16.746;2023-07-29T14:29:55;2.30;;;0.80;;
37199;SDS011;23096;50.892;16.746;2023-07-29T14:32:21;0.80;;;0.80;;
37199;SDS011;23096;50.892;16.746;2023-07-29T14:34:46;4.30;;;0.80;;
37199;SDS011;23096;50.892;16.746;2023-07-29T14:37:13;0.60;;;0.60;;
37199;SDS011;23096;50.892;16.746;2023-07-29T14:39:39;0.60;;;0.60;;
37199;SDS011;23096;50.892;16.746;2023-07-29T14:42:04;0.50;;;0.50;;
37199;SDS011;23096;50.892;16.746;2023-07-29T14:44:30;2.60;;;0.80;;
37199;SDS011;23096;50.892;16.746;2023-07-29T14:46:55;0.70;;;0.70;;
37199;SDS011;23096;50.892;16.746;2023-07-29T14:49:21;0.70;;;0.70;;